createdAt,value
2019-03-31T00:00:45.345Z,8.17
2019-03-31T00:03:14.731Z,6.47
2019-03-31T00:05:44.108Z,9.10
2019-03-31T00:08:13.426Z,6.87
2019-03-31T00:10:50.274Z,8.63
2019-03-31T00:13:19.558Z,8.77
2019-03-31T00:15:49.727Z,7.28
2019-03-31T00:18:19.246Z,5.63
2019-03-31T00:20:50.025Z,6.67
2019-03-31T00:23:19.332Z,7.13
2019-03-31T00:25:51.347Z,7.10
2019-03-31T00:28:21.014Z,7.63
2019-03-31T00:30:51.139Z,8.00
2019-03-31T00:33:20.506Z,7.33
2019-03-31T00:35:49.852Z,5.87
2019-03-31T00:38:19.258Z,5.73
2019-03-31T00:40:48.619Z,7.10
2019-03-31T00:43:17.998Z,6.67
2019-03-31T00:45:47.738Z,6.10
2019-03-31T00:48:17.213Z,7.58
2019-03-31T00:50:46.782Z,8.00
2019-03-31T00:53:17.798Z,5.62
2019-03-31T00:55:47.073Z,8.50
2019-03-31T00:58:16.475Z,6.53
2019-03-31T01:01:35.772Z,7.53
2019-03-31T01:03:54.104Z,10.23
2019-03-31T01:06:24.030Z,9.87
2019-03-31T01:08:53.653Z,7.67
2019-03-31T01:11:27.682Z,8.57
2019-03-31T01:16:27.141Z,6.97
2019-03-31T01:18:56.424Z,7.47
2019-03-31T01:21:25.758Z,8.30
2019-03-31T01:23:55.122Z,8.03
2019-03-31T01:26:24.464Z,7.07
2019-03-31T01:28:54.210Z,9.20
2019-03-31T01:31:23.579Z,10.17
2019-03-31T01:33:52.863Z,10.18
2019-03-31T01:36:22.422Z,9.23
2019-03-31T01:38:51.703Z,8.10
2019-03-31T01:41:21.239Z,7.47
2019-03-31T01:43:50.515Z,7.27
2019-03-31T01:46:22.929Z,6.40
2019-03-31T01:48:52.382Z,8.67
2019-03-31T01:51:21.815Z,7.60
2019-03-31T01:53:51.094Z,7.07
2019-03-31T01:56:21.003Z,7.97
2019-03-31T01:58:50.313Z,8.23
2019-03-31T02:01:19.924Z,7.17
2019-03-31T02:03:49.466Z,8.83
2019-03-31T02:06:18.760Z,8.90
2019-03-31T02:08:48.082Z,6.53
2019-03-31T02:11:18.893Z,7.05
2019-03-31T02:13:49.855Z,7.23
2019-03-31T02:16:19.827Z,8.53
2019-03-31T02:18:49.084Z,7.17
2019-03-31T02:21:18.369Z,6.97
2019-03-31T02:23:47.663Z,7.10
2019-03-31T02:26:17.100Z,8.40
2019-03-31T02:28:46.365Z,7.03
2019-03-31T02:31:15.694Z,8.00
2019-03-31T02:33:45.043Z,9.07
2019-03-31T02:36:14.663Z,9.17
2019-03-31T02:38:44.783Z,10.07
2019-03-31T02:41:14.090Z,6.57
2019-03-31T02:43:43.360Z,8.70
2019-03-31T02:46:12.655Z,8.33
2019-03-31T02:48:41.938Z,9.17
2019-03-31T02:51:11.239Z,8.93
2019-03-31T02:53:40.629Z,7.40
2019-03-31T02:56:11.977Z,12.23
2019-03-31T02:58:41.699Z,8.90
2019-03-31T03:01:12.256Z,9.07
2019-03-31T03:03:42.441Z,6.80
2019-03-31T03:06:14.202Z,7.17
2019-03-31T03:08:46.556Z,8.03
2019-03-31T03:11:17.858Z,8.53
2019-03-31T03:13:49.567Z,8.67
2019-03-31T03:16:20.474Z,9.83
2019-03-31T03:18:50.528Z,9.63
2019-03-31T03:21:24.113Z,11.35
2019-03-31T03:23:52.717Z,9.40
2019-03-31T03:26:24.429Z,10.38
2019-03-31T03:28:53.869Z,11.93
2019-03-31T03:31:25.485Z,10.53
2019-03-31T03:33:54.848Z,10.30
2019-03-31T03:36:24.162Z,10.13
2019-03-31T03:38:53.443Z,10.83
2019-03-31T03:41:22.722Z,10.63
2019-03-31T03:43:59.578Z,10.03
2019-03-31T03:46:23.007Z,10.67
2019-03-31T03:48:52.317Z,9.03
2019-03-31T03:51:21.874Z,10.70
2019-03-31T03:53:51.254Z,11.12
2019-03-31T03:56:20.561Z,12.73
2019-03-31T03:58:50.774Z,11.60
2019-03-31T04:01:38.357Z,11.17
2019-03-31T04:04:07.650Z,9.38
2019-03-31T04:06:36.922Z,9.30
2019-03-31T04:09:07.481Z,8.63
2019-03-31T04:11:36.784Z,10.63
2019-03-31T04:14:06.154Z,8.53
2019-03-31T04:16:35.428Z,9.27
2019-03-31T04:19:05.863Z,9.50
2019-03-31T04:21:35.131Z,9.10
2019-03-31T04:24:04.504Z,8.80
2019-03-31T04:26:33.790Z,8.00
2019-03-31T04:29:03.085Z,10.80
2019-03-31T04:31:32.431Z,12.63
2019-03-31T04:34:01.719Z,12.37
2019-03-31T04:36:30.988Z,9.73
2019-03-31T04:39:00.787Z,10.60
2019-03-31T04:41:30.251Z,10.50
2019-03-31T04:43:59.548Z,11.97
2019-03-31T04:46:29.011Z,11.17
2019-03-31T04:48:58.299Z,11.53
2019-03-31T04:51:27.645Z,12.40
2019-03-31T04:53:56.954Z,10.60
2019-03-31T04:56:26.253Z,9.30
2019-03-31T04:58:55.549Z,11.00
2019-03-31T05:01:24.817Z,10.87
2019-03-31T05:04:04.617Z,12.15
2019-03-31T05:06:25.092Z,10.63
2019-03-31T05:08:54.484Z,13.08
2019-03-31T05:11:23.790Z,11.47
2019-03-31T05:13:53.074Z,11.87
2019-03-31T05:16:22.376Z,12.53
2019-03-31T05:18:52.762Z,12.45
2019-03-31T05:21:22.038Z,11.90
2019-03-31T05:23:51.329Z,15.40
2019-03-31T05:26:20.627Z,13.33
2019-03-31T05:28:49.934Z,11.70
2019-03-31T05:31:19.218Z,11.28
2019-03-31T05:33:48.506Z,12.60
2019-03-31T05:36:17.897Z,12.10
2019-03-31T05:38:47.150Z,11.20
2019-03-31T05:41:16.429Z,18.02
2019-03-31T05:43:45.710Z,13.50
2019-03-31T05:46:14.998Z,10.20
2019-03-31T05:48:44.259Z,11.07
2019-03-31T05:51:13.788Z,10.50
2019-03-31T05:53:43.152Z,10.87
2019-03-31T05:56:12.448Z,14.77
2019-03-31T05:58:41.739Z,12.90
2019-03-31T06:01:11.045Z,9.60
2019-03-31T06:03:40.351Z,11.77
2019-03-31T06:06:09.659Z,12.13
2019-03-31T06:08:38.946Z,13.08
2019-03-31T06:11:08.233Z,11.00
2019-03-31T06:13:37.513Z,12.98
2019-03-31T06:16:06.814Z,11.90
2019-03-31T06:18:36.091Z,10.27
2019-03-31T06:21:05.386Z,12.67
2019-03-31T06:23:34.910Z,12.40
2019-03-31T06:26:04.376Z,9.37
2019-03-31T06:28:33.750Z,9.77
2019-03-31T06:31:03.034Z,9.90
2019-03-31T06:33:32.348Z,9.83
2019-03-31T06:36:01.717Z,9.48
2019-03-31T06:38:30.978Z,10.90
2019-03-31T06:41:00.259Z,10.83
2019-03-31T06:43:29.549Z,8.87
2019-03-31T06:45:58.852Z,7.75
2019-03-31T06:48:28.154Z,8.27
2019-03-31T06:50:57.460Z,8.27
2019-03-31T06:53:26.734Z,9.65
2019-03-31T06:55:56.005Z,7.77
2019-03-31T06:58:25.436Z,7.57
2019-03-31T07:00:54.814Z,9.87
2019-03-31T07:03:24.330Z,7.97
2019-03-31T07:05:53.620Z,9.07
2019-03-31T07:08:22.914Z,8.70
2019-03-31T07:10:52.198Z,8.47
2019-03-31T07:13:21.555Z,9.05
2019-03-31T07:15:50.866Z,8.40
2019-03-31T07:18:20.749Z,7.47
2019-03-31T07:20:50.194Z,8.73
2019-03-31T07:23:19.503Z,8.93
2019-03-31T07:25:48.793Z,11.50
2019-03-31T07:28:18.121Z,9.57
2019-03-31T07:30:47.637Z,8.73
2019-03-31T07:33:16.925Z,8.90
2019-03-31T07:35:46.217Z,8.40
2019-03-31T07:39:30.060Z,7.67
2019-03-31T08:03:52.224Z,8.05
2019-03-31T08:07:14.513Z,8.43
2019-03-31T08:09:51.947Z,8.23
2019-03-31T08:12:43.948Z,15.13
2019-03-31T08:16:02.603Z,9.70
2019-03-31T08:19:20.881Z,8.23
2019-03-31T08:23:03.070Z,8.30
2019-03-31T08:40:54.197Z,8.70
2019-03-31T08:43:40.819Z,8.07
2019-03-31T08:46:35.608Z,11.40
2019-03-31T09:45:08.313Z,14.80
2019-03-31T10:02:51.198Z,21.15
2019-03-31T10:05:35.926Z,18.53
2019-03-31T10:09:24.238Z,21.30
2019-03-31T10:15:37.934Z,17.60
2019-03-31T10:18:07.338Z,20.53
2019-03-31T10:20:38.680Z,22.03
2019-03-31T10:23:08.050Z,22.17
2019-03-31T10:25:37.927Z,20.30
2019-03-31T10:28:07.760Z,19.70
2019-03-31T10:30:38.336Z,18.43
2019-03-31T10:33:11.928Z,21.17
2019-03-31T10:35:42.775Z,20.23
2019-03-31T10:38:14.778Z,20.30
2019-03-31T10:40:44.166Z,20.53
2019-03-31T10:43:13.578Z,21.70
2019-03-31T10:45:42.868Z,22.43
2019-03-31T10:48:20.262Z,22.62
2019-03-31T10:50:43.410Z,20.63
2019-03-31T10:53:12.873Z,19.73
2019-03-31T10:55:42.198Z,20.77
2019-03-31T10:58:12.834Z,19.70
2019-03-31T11:00:44.520Z,19.53
2019-03-31T11:03:13.212Z,17.47
2019-03-31T11:05:44.393Z,19.33
2019-03-31T11:08:13.694Z,18.23
2019-03-31T11:10:42.974Z,15.57
2019-03-31T11:13:14.934Z,15.07
2019-03-31T11:15:46.037Z,16.93
2019-03-31T11:18:15.818Z,15.97
2019-03-31T11:20:45.442Z,16.20
2019-03-31T11:23:19.513Z,16.73
2019-03-31T11:25:49.003Z,15.45
2019-03-31T11:28:18.763Z,16.03
2019-03-31T11:30:48.063Z,17.03
2019-03-31T11:33:19.322Z,18.70
2019-03-31T11:35:48.791Z,18.27
2019-03-31T11:38:21.616Z,18.80
2019-03-31T11:40:51.709Z,17.97
2019-03-31T11:43:25.380Z,18.00
2019-03-31T11:45:55.030Z,39.03
2019-03-31T11:48:24.606Z,19.17
2019-03-31T11:50:53.983Z,19.27
2019-03-31T11:53:23.426Z,18.70
2019-03-31T11:55:52.865Z,18.93
2019-03-31T11:58:23.476Z,20.83
2019-03-31T12:00:58.004Z,20.07
2019-03-31T12:03:31.015Z,17.30
2019-03-31T12:06:02.072Z,19.83
2019-03-31T12:08:31.571Z,20.27
2019-03-31T12:11:01.413Z,19.03
2019-03-31T12:13:30.800Z,20.70
2019-03-31T12:16:00.418Z,19.53
2019-03-31T12:18:29.735Z,20.90
2019-03-31T12:20:59.350Z,18.73
2019-03-31T12:23:28.862Z,23.83
2019-03-31T12:25:58.395Z,18.50
2019-03-31T12:28:28.223Z,17.67
2019-03-31T12:30:58.155Z,17.13
2019-03-31T12:33:28.522Z,17.65
2019-03-31T12:35:58.220Z,18.70
2019-03-31T12:38:27.936Z,18.83
2019-03-31T12:40:57.283Z,18.03
2019-03-31T12:43:26.618Z,16.73
2019-03-31T12:45:55.955Z,17.87
2019-03-31T12:48:25.250Z,17.30
2019-03-31T12:50:54.672Z,17.73
2019-03-31T12:53:25.018Z,19.13
2019-03-31T12:56:00.391Z,18.10
2019-03-31T12:58:28.303Z,17.80
2019-03-31T13:00:58.645Z,17.37
2019-03-31T13:03:29.094Z,16.97
2019-03-31T13:05:59.414Z,18.13
2019-03-31T13:08:28.720Z,16.13
2019-03-31T13:10:58.935Z,15.90
2019-03-31T13:13:28.277Z,15.73
2019-03-31T13:15:57.590Z,15.13
2019-03-31T13:18:28.199Z,14.83
2019-03-31T13:20:58.054Z,17.43
2019-03-31T13:23:27.452Z,15.28
2019-03-31T13:25:56.767Z,15.53
2019-03-31T13:28:26.093Z,16.17
2019-03-31T13:30:55.397Z,16.63
2019-03-31T13:33:24.698Z,18.00
2019-03-31T13:35:54.090Z,14.57
2019-03-31T13:38:23.414Z,13.33
2019-03-31T13:40:52.857Z,14.27
2019-03-31T13:43:22.166Z,12.17
2019-03-31T13:45:51.480Z,14.20
2019-03-31T13:48:20.812Z,13.80
2019-03-31T13:50:51.753Z,16.67
2019-03-31T13:53:23.123Z,15.40
2019-03-31T13:55:52.477Z,13.93
2019-03-31T13:58:23.526Z,14.03
2019-03-31T14:00:52.893Z,13.43
2019-03-31T14:03:22.190Z,19.83
2019-03-31T14:05:51.558Z,14.68
2019-03-31T14:08:26.094Z,14.77
2019-03-31T14:10:52.682Z,13.03
2019-03-31T14:13:21.992Z,12.20
2019-03-31T14:15:52.797Z,13.40
2019-03-31T14:18:22.100Z,13.40
2019-03-31T14:20:51.604Z,13.77
2019-03-31T14:23:21.738Z,12.43
2019-03-31T14:25:51.146Z,13.17
2019-03-31T14:28:20.931Z,14.73
2019-03-31T14:30:50.246Z,15.07
2019-03-31T14:33:19.526Z,13.68
2019-03-31T14:35:48.984Z,13.88
2019-03-31T14:38:18.388Z,15.18
2019-03-31T14:40:47.834Z,26.13
2019-03-31T14:43:17.183Z,14.77
2019-03-31T14:45:46.583Z,13.57
2019-03-31T14:48:15.998Z,14.80
2019-03-31T14:50:45.347Z,12.97
2019-03-31T14:53:14.711Z,12.93
2019-03-31T14:55:44.033Z,14.80
2019-03-31T14:58:13.324Z,15.43
2019-03-31T15:00:42.644Z,15.23
2019-03-31T15:03:12.093Z,16.10
2019-03-31T15:05:41.406Z,17.87
2019-03-31T15:08:12.955Z,17.67
2019-03-31T15:10:42.277Z,21.42
2019-03-31T15:13:11.662Z,22.73
2019-03-31T15:15:41.882Z,24.50
2019-03-31T15:18:11.359Z,25.70
2019-03-31T15:20:41.153Z,25.40
2019-03-31T15:23:11.005Z,28.63
2019-03-31T15:25:43.038Z,26.50
2019-03-31T15:28:11.520Z,29.73
2019-03-31T15:30:40.838Z,30.87
2019-03-31T15:33:11.711Z,39.90
2019-03-31T15:35:41.034Z,41.00
2019-03-31T15:38:10.526Z,26.93
2019-03-31T15:40:41.180Z,35.73
2019-03-31T15:43:11.301Z,27.27
2019-03-31T15:45:40.687Z,32.23
2019-03-31T15:48:10.779Z,40.30
2019-03-31T15:50:40.059Z,43.87
2019-03-31T15:53:09.354Z,46.23
2019-03-31T15:55:38.646Z,44.73
2019-03-31T15:58:08.167Z,44.53
2019-03-31T16:00:37.454Z,46.75
2019-03-31T16:03:06.821Z,44.83
2019-03-31T16:05:36.113Z,50.25
2019-03-31T16:08:05.072Z,51.13
2019-03-31T16:10:33.941Z,50.55
2019-03-31T16:13:02.804Z,46.83
2019-03-31T16:15:32.427Z,52.27
2019-03-31T16:18:01.284Z,53.60
2019-03-31T16:20:30.235Z,52.40
2019-03-31T16:22:59.067Z,52.73
2019-03-31T16:25:30.644Z,54.03
2019-03-31T16:27:59.426Z,54.83
2019-03-31T16:30:28.706Z,55.00
2019-03-31T16:32:57.489Z,52.13
2019-03-31T16:35:26.276Z,56.90
2019-03-31T16:37:55.066Z,57.53
2019-03-31T16:40:23.964Z,46.93
2019-03-31T16:42:54.399Z,51.73
2019-03-31T16:45:23.170Z,55.40
2019-03-31T16:47:51.942Z,56.27
2019-03-31T16:50:20.728Z,51.63
2019-03-31T16:52:52.491Z,57.50
2019-03-31T16:55:20.050Z,47.23
2019-03-31T16:57:48.833Z,47.77
2019-03-31T17:00:17.973Z,49.15
2019-03-31T17:02:46.742Z,51.93
2019-03-31T17:05:21.936Z,50.43
2019-03-31T17:07:46.599Z,51.57
2019-03-31T17:10:16.890Z,49.85
2019-03-31T17:12:45.654Z,50.73
2019-03-31T17:15:15.044Z,47.73
2019-03-31T17:17:43.831Z,48.97
2019-03-31T17:20:13.093Z,51.23
2019-03-31T17:22:41.867Z,45.33
2019-03-31T17:25:11.027Z,49.17
2019-03-31T17:27:39.782Z,44.50
2019-03-31T17:30:09.142Z,48.53
2019-03-31T17:32:38.006Z,48.13
2019-03-31T17:35:07.046Z,45.83
2019-03-31T17:37:36.503Z,44.33
2019-03-31T17:40:07.195Z,48.23
2019-03-31T17:42:36.327Z,45.15
2019-03-31T17:45:06.556Z,43.40
2019-03-31T17:47:35.337Z,42.57
2019-03-31T17:50:05.307Z,42.70
2019-03-31T17:52:34.151Z,41.93
2019-03-31T17:55:02.942Z,43.02
2019-03-31T17:57:31.810Z,41.97
2019-03-31T18:00:02.342Z,45.38
2019-03-31T18:02:31.114Z,46.37
2019-03-31T18:05:00.398Z,42.13
2019-03-31T18:07:29.341Z,44.30
2019-03-31T18:09:59.916Z,44.93
2019-03-31T18:12:28.678Z,43.80
2019-03-31T18:14:57.604Z,43.53
2019-03-31T18:17:26.370Z,43.30
2019-03-31T18:20:13.682Z,43.87
2019-03-31T18:22:42.509Z,41.63
2019-03-31T18:25:11.873Z,44.53
2019-03-31T18:27:40.938Z,39.03
2019-03-31T18:30:09.964Z,40.60
2019-03-31T18:32:38.775Z,37.17
2019-03-31T18:35:08.006Z,40.87
2019-03-31T18:37:36.761Z,35.65
2019-03-31T18:40:06.467Z,41.63
2019-03-31T18:42:35.316Z,39.33
2019-03-31T18:45:04.998Z,39.63
2019-03-31T18:47:34.399Z,42.10
2019-03-31T18:50:03.261Z,39.83
2019-03-31T18:52:32.045Z,39.53
2019-03-31T18:55:16.602Z,36.37
2019-03-31T18:58:00.847Z,41.95
2019-03-31T19:00:47.518Z,33.80
2019-03-31T19:03:34.286Z,28.45
2019-03-31T19:06:21.045Z,26.70
2019-03-31T19:08:59.553Z,30.03
2019-03-31T19:11:35.940Z,30.77
2019-03-31T19:14:27.233Z,26.62
2019-03-31T19:17:09.065Z,26.63
2019-03-31T19:19:59.727Z,25.40
2019-03-31T19:22:37.044Z,22.03
2019-03-31T19:25:28.846Z,24.57
2019-03-31T19:28:29.000Z,24.03
2019-03-31T19:31:26.235Z,24.07
2019-03-31T19:34:03.887Z,23.20
2019-03-31T19:36:54.536Z,20.33
2019-03-31T19:39:41.351Z,22.93
2019-03-31T19:42:19.594Z,21.83
2019-03-31T19:44:58.302Z,22.03
2019-03-31T19:47:43.506Z,22.13
2019-03-31T19:50:34.409Z,21.50
2019-03-31T19:53:25.447Z,23.20
2019-03-31T19:56:28.408Z,23.10
2019-03-31T19:59:18.123Z,18.53
2019-03-31T20:01:57.026Z,21.57
2019-03-31T20:04:50.766Z,20.53
2019-03-31T20:07:39.947Z,22.47
2019-03-31T20:10:21.821Z,22.17
2019-03-31T20:13:08.598Z,20.90
2019-03-31T20:15:54.899Z,20.37
2019-03-31T20:18:45.645Z,22.50
2019-03-31T20:21:45.333Z,21.00
2019-03-31T20:24:27.106Z,17.93
2019-03-31T20:27:14.179Z,20.83
2019-03-31T20:29:56.664Z,22.23
2019-03-31T20:32:44.649Z,21.47
2019-03-31T20:35:26.208Z,22.42
2019-03-31T20:38:16.466Z,24.33
2019-03-31T20:41:07.817Z,23.10
2019-03-31T20:43:43.115Z,19.47
2019-03-31T20:46:12.789Z,18.57
2019-03-31T20:48:41.654Z,17.37
2019-03-31T20:51:10.408Z,21.20
2019-03-31T20:53:39.583Z,21.43
2019-03-31T20:56:08.384Z,20.23
2019-03-31T20:58:38.256Z,20.55
2019-03-31T21:01:10.056Z,19.07
2019-03-31T21:03:38.029Z,20.77
2019-03-31T21:06:06.930Z,18.63
2019-03-31T21:08:35.686Z,21.37
2019-03-31T21:11:07.564Z,16.73
2019-03-31T21:13:37.404Z,17.50
2019-03-31T21:16:06.554Z,17.27
2019-03-31T21:18:35.313Z,15.37
2019-03-31T21:21:04.470Z,20.03
2019-03-31T21:23:33.481Z,18.27
2019-03-31T21:26:02.325Z,16.93
2019-03-31T21:28:31.104Z,13.37
2019-03-31T21:30:59.933Z,17.77
2019-03-31T21:33:28.753Z,16.03
2019-03-31T21:35:57.606Z,15.17
2019-03-31T21:38:26.368Z,16.07
2019-03-31T21:40:55.153Z,16.27
2019-03-31T21:43:23.913Z,17.77
2019-03-31T21:45:52.734Z,18.10
2019-03-31T21:48:21.495Z,16.90
2019-03-31T21:50:50.246Z,17.37
2019-03-31T21:53:19.133Z,16.30
2019-03-31T21:55:48.057Z,18.40
2019-03-31T21:58:16.893Z,17.23
2019-03-31T22:00:52.813Z,15.30
2019-03-31T22:03:21.574Z,15.17
2019-03-31T22:05:50.343Z,16.75
2019-03-31T22:08:20.552Z,15.85
2019-03-31T22:10:49.438Z,14.53
2019-03-31T22:13:18.189Z,17.07
2019-03-31T22:15:46.933Z,18.70
2019-03-31T22:18:15.705Z,16.73
2019-03-31T22:20:47.148Z,18.25
2019-03-31T22:23:14.958Z,16.37
2019-03-31T22:25:43.795Z,16.47
2019-03-31T22:28:12.544Z,18.93
2019-03-31T22:30:41.306Z,17.23
2019-03-31T22:33:10.075Z,17.03
2019-03-31T22:35:39.311Z,16.43
2019-03-31T22:38:08.170Z,15.23
2019-03-31T22:40:36.928Z,17.30
2019-03-31T22:43:07.866Z,18.17
2019-03-31T22:45:36.252Z,17.02
2019-03-31T22:48:05.039Z,17.30
2019-03-31T22:50:33.943Z,17.90
2019-03-31T22:53:02.805Z,16.70
2019-03-31T22:55:31.576Z,17.33
2019-03-31T22:58:00.354Z,18.80
2019-03-31T23:00:29.114Z,16.87
2019-03-31T23:02:57.868Z,16.80
2019-03-31T23:05:26.646Z,17.37
2019-03-31T23:07:55.404Z,17.53
2019-03-31T23:10:24.155Z,15.80
2019-03-31T23:12:52.934Z,15.10
2019-03-31T23:15:21.682Z,16.85
2019-03-31T23:17:50.522Z,18.03
2019-03-31T23:20:19.262Z,17.40
2019-03-31T23:22:48.021Z,19.63
2019-03-31T23:25:16.776Z,14.93
2019-03-31T23:27:45.535Z,18.77
2019-03-31T23:30:14.647Z,22.17
2019-03-31T23:32:43.389Z,16.55
2019-03-31T23:35:12.293Z,15.97
2019-03-31T23:37:41.056Z,16.55
2019-03-31T23:40:10.083Z,16.50
2019-03-31T23:42:38.842Z,15.70
2019-03-31T23:45:08.436Z,17.47
2019-03-31T23:47:37.189Z,16.00
2019-03-31T23:50:06.207Z,16.07
2019-03-31T23:52:34.970Z,18.97
2019-03-31T23:55:03.817Z,17.92
2019-03-31T23:57:42.592Z,17.67
